createdAt,value
2023-07-25T00:01:39.210Z,17.10
2023-07-25T00:04:06.133Z,17.20
2023-07-25T00:06:33.038Z,17.10
2023-07-25T00:08:59.922Z,17.20
2023-07-25T00:11:26.727Z,17.20
2023-07-25T00:13:53.541Z,17.10
2023-07-25T00:16:20.390Z,17.10
2023-07-25T00:18:47.206Z,17.10
2023-07-25T00:21:14.118Z,17.20
2023-07-25T00:23:41.005Z,17.20
2023-07-25T00:26:07.814Z,17.20
2023-07-25T00:28:34.629Z,17.20
2023-07-25T00:31:08.212Z,17.20
2023-07-25T00:33:35.054Z,17.20
2023-07-25T00:36:01.959Z,17.20
2023-07-25T00:38:28.774Z,17.20
2023-07-25T00:40:55.630Z,17.20
2023-07-25T00:43:22.442Z,17.20
2023-07-25T00:45:49.391Z,17.10
2023-07-25T00:48:16.384Z,17.20
2023-07-25T00:50:43.263Z,17.20
2023-07-25T00:53:11.042Z,17.20
2023-07-25T00:55:38.318Z,17.10
2023-07-25T00:58:05.326Z,17.20
2023-07-25T01:00:32.209Z,17.20
2023-07-25T01:02:59.171Z,17.20
2023-07-25T01:05:27.379Z,17.10
2023-07-25T01:07:54.205Z,17.20
2023-07-25T01:10:21.226Z,17.10
2023-07-25T01:12:48.034Z,17.10
2023-07-25T01:15:14.965Z,17.10
2023-07-25T01:17:41.899Z,17.10
2023-07-25T01:20:09.764Z,17.00
2023-07-25T01:22:37.660Z,17.00
2023-07-25T01:25:04.874Z,17.10
2023-07-25T01:27:31.795Z,17.00
2023-07-25T01:29:58.620Z,17.00
2023-07-25T01:32:25.537Z,17.10
2023-07-25T01:34:52.374Z,17.00
2023-07-25T01:37:19.488Z,17.10
2023-07-25T01:39:46.365Z,17.00
2023-07-25T01:42:13.303Z,17.00
2023-07-25T01:44:40.190Z,17.10
2023-07-25T01:47:07.091Z,17.10
2023-07-25T01:49:34.295Z,17.10
2023-07-25T01:52:01.121Z,17.10
2023-07-25T01:54:27.936Z,17.10
2023-07-25T01:56:54.819Z,17.10
2023-07-25T01:59:21.662Z,17.20
2023-07-25T02:01:48.668Z,17.20
2023-07-25T02:04:15.482Z,17.20
2023-07-25T02:06:42.360Z,17.30
2023-07-25T02:09:09.223Z,17.20
2023-07-25T02:11:36.080Z,17.20
2023-07-25T02:14:02.900Z,17.30
2023-07-25T02:16:29.822Z,17.30
2023-07-25T02:18:56.678Z,17.20
2023-07-25T02:21:23.542Z,17.40
2023-07-25T02:23:50.343Z,17.40
2023-07-25T02:26:17.164Z,17.50
2023-07-25T02:28:43.973Z,17.40
2023-07-25T02:31:10.848Z,17.40
2023-07-25T02:33:39.230Z,17.40
2023-07-25T02:36:06.608Z,17.50
2023-07-25T02:38:33.445Z,17.60
2023-07-25T02:41:00.369Z,17.50
2023-07-25T02:43:27.296Z,17.50
2023-07-25T02:45:54.094Z,17.60
2023-07-25T02:48:20.932Z,17.50
2023-07-25T02:50:47.771Z,17.50
2023-07-25T02:53:14.646Z,17.50
2023-07-25T02:55:41.606Z,17.60
2023-07-25T02:58:08.642Z,17.80
2023-07-25T03:00:35.767Z,18.10
2023-07-25T03:03:02.851Z,18.10
2023-07-25T03:05:29.864Z,18.20
2023-07-25T03:07:59.570Z,18.20
2023-07-25T03:10:26.417Z,18.30
2023-07-25T03:12:54.244Z,18.30
2023-07-25T03:15:21.626Z,18.40
2023-07-25T03:17:48.782Z,18.40
2023-07-25T03:20:15.794Z,18.40
2023-07-25T03:22:42.828Z,18.40
2023-07-25T03:25:09.919Z,18.40
2023-07-25T03:27:36.818Z,18.40
2023-07-25T03:30:03.872Z,18.40
2023-07-25T03:32:30.765Z,18.40
2023-07-25T03:34:57.604Z,18.50
2023-07-25T03:37:24.446Z,18.40
2023-07-25T03:39:51.394Z,18.40
2023-07-25T03:42:18.210Z,18.40
2023-07-25T03:44:45.027Z,18.50
2023-07-25T03:47:11.850Z,18.40
2023-07-25T03:49:39.281Z,18.50
2023-07-25T03:52:06.249Z,18.50
2023-07-25T03:54:33.093Z,18.40
2023-07-25T03:57:00.023Z,18.40
2023-07-25T03:59:26.941Z,18.40
2023-07-25T04:01:53.873Z,18.40
2023-07-25T04:04:20.774Z,18.40
2023-07-25T04:06:47.657Z,18.40
2023-07-25T04:09:14.465Z,18.40
2023-07-25T04:11:41.249Z,18.50
2023-07-25T04:14:08.177Z,18.50
2023-07-25T04:16:35.252Z,18.50
2023-07-25T04:19:02.076Z,18.60
2023-07-25T04:21:29.446Z,18.50
2023-07-25T04:23:56.603Z,18.60
2023-07-25T04:26:23.540Z,18.50
2023-07-25T04:28:50.357Z,19.40
2023-07-25T04:31:17.247Z,18.70
2023-07-25T04:33:44.248Z,18.60
2023-07-25T04:36:11.174Z,18.70
2023-07-25T04:38:38.094Z,18.70
2023-07-25T04:41:04.994Z,18.80
2023-07-25T04:43:31.821Z,18.80
2023-07-25T04:45:58.639Z,18.70
2023-07-25T04:48:25.532Z,18.70
2023-07-25T04:50:52.478Z,18.70
2023-07-25T04:53:19.325Z,18.70
2023-07-25T04:55:46.116Z,18.70
2023-07-25T04:58:12.929Z,18.80
2023-07-25T05:00:39.820Z,18.70
2023-07-25T05:03:06.873Z,18.70
2023-07-25T05:05:33.820Z,18.70
2023-07-25T05:08:00.730Z,18.80
2023-07-25T05:10:27.655Z,18.80
2023-07-25T05:12:54.519Z,18.90
2023-07-25T05:15:21.336Z,19.00
2023-07-25T05:17:48.299Z,19.00
2023-07-25T05:20:15.190Z,19.00
2023-07-25T05:22:42.036Z,19.00
2023-07-25T05:25:09.043Z,19.10
2023-07-25T05:27:36.068Z,19.10
2023-07-25T05:30:04.152Z,19.00
2023-07-25T05:32:31.033Z,18.90
2023-07-25T05:34:57.886Z,18.90
2023-07-25T05:37:34.014Z,18.70
2023-07-25T05:40:00.857Z,18.60
2023-07-25T05:42:27.718Z,18.40
2023-07-25T05:44:54.527Z,18.00
2023-07-25T05:47:21.426Z,18.00
2023-07-25T05:49:48.335Z,17.60
2023-07-25T05:52:15.160Z,17.50
2023-07-25T05:54:42.070Z,17.50
2023-07-25T05:57:09.042Z,17.30
2023-07-25T05:59:35.886Z,17.20
2023-07-25T06:02:05.150Z,17.20
2023-07-25T06:04:32.011Z,17.30
2023-07-25T06:06:58.858Z,17.30
2023-07-25T06:09:25.693Z,17.20
2023-07-25T06:11:52.739Z,17.20
2023-07-25T06:14:19.562Z,17.20
2023-07-25T06:16:46.452Z,17.30
2023-07-25T06:19:13.492Z,17.40
2023-07-25T06:21:40.355Z,17.30
2023-07-25T06:24:07.232Z,17.50
2023-07-25T06:26:34.089Z,17.40
2023-07-25T06:29:01.460Z,17.50
2023-07-25T06:31:28.373Z,17.60
2023-07-25T06:33:55.249Z,17.50
2023-07-25T06:36:22.082Z,19.50
2023-07-25T06:38:48.925Z,17.70
2023-07-25T06:41:15.742Z,17.60
2023-07-25T06:43:42.589Z,17.80
2023-07-25T06:46:09.422Z,18.10
2023-07-25T06:48:36.325Z,18.30
2023-07-25T06:51:04.034Z,18.80
2023-07-25T06:53:30.844Z,19.40
2023-07-25T06:55:57.693Z,19.90
2023-07-25T06:58:24.480Z,20.10
2023-07-25T07:00:51.430Z,20.30
2023-07-25T07:03:18.422Z,20.10
2023-07-25T07:05:52.586Z,19.90
2023-07-25T07:08:19.907Z,19.80
2023-07-25T07:10:46.823Z,19.70
2023-07-25T07:13:13.642Z,19.50
2023-07-25T07:15:40.556Z,19.70
2023-07-25T07:18:07.465Z,19.80
2023-07-25T07:20:40.890Z,19.80
2023-07-25T07:23:08.110Z,19.90
2023-07-25T07:25:44.812Z,20.30
2023-07-25T07:28:11.801Z,22.00
2023-07-25T07:30:38.820Z,23.70
2023-07-25T07:33:05.905Z,23.80
2023-07-25T07:35:32.797Z,23.50
2023-07-25T07:37:59.943Z,22.90
2023-07-25T07:40:26.911Z,22.10
2023-07-25T07:42:53.848Z,21.90
2023-07-25T07:45:20.715Z,21.70
2023-07-25T07:47:47.661Z,21.40
2023-07-25T07:50:14.745Z,21.40
2023-07-25T07:52:43.841Z,21.80
2023-07-25T07:55:11.942Z,22.90
2023-07-25T07:57:40.302Z,23.00
2023-07-25T08:00:08.089Z,22.70
2023-07-25T08:02:35.022Z,22.50
2023-07-25T08:05:02.100Z,22.30
2023-07-25T08:07:29.007Z,21.90
2023-07-25T08:09:56.252Z,22.00
2023-07-25T08:12:23.521Z,22.00
2023-07-25T08:14:50.484Z,22.40
2023-07-25T08:17:17.417Z,22.60
2023-07-25T08:19:44.385Z,22.70
2023-07-25T08:22:11.804Z,22.80
2023-07-25T08:24:39.074Z,23.10
2023-07-25T08:27:06.222Z,23.20
2023-07-25T08:29:33.093Z,23.30
2023-07-25T08:32:02.445Z,23.70
2023-07-25T08:34:29.332Z,24.00
2023-07-25T08:36:56.214Z,24.00
2023-07-25T08:39:23.125Z,23.40
2023-07-25T08:41:53.553Z,23.10
2023-07-25T08:44:21.401Z,22.70
2023-07-25T08:46:51.285Z,22.50
2023-07-25T08:49:18.665Z,22.40
2023-07-25T08:51:52.895Z,22.50
2023-07-25T08:54:22.570Z,22.60
2023-07-25T08:56:50.185Z,22.60
2023-07-25T08:59:18.635Z,22.70
2023-07-25T09:01:46.087Z,22.60
2023-07-25T09:04:14.125Z,23.00
2023-07-25T09:06:41.314Z,23.10
2023-07-25T09:09:09.459Z,23.10
2023-07-25T09:11:36.446Z,22.60
2023-07-25T09:14:10.519Z,22.30
2023-07-25T09:16:39.024Z,22.20
2023-07-25T09:19:06.217Z,22.40
2023-07-25T09:21:37.256Z,23.10
2023-07-25T09:24:04.533Z,24.40
2023-07-25T09:26:32.888Z,25.80
2023-07-25T09:29:04.002Z,27.10
2023-07-25T09:31:35.629Z,27.00
2023-07-25T09:34:05.368Z,27.70
2023-07-25T09:36:33.276Z,27.60
2023-07-25T09:39:01.133Z,27.50
2023-07-25T09:41:35.371Z,28.10
2023-07-25T09:44:07.423Z,28.30
2023-07-25T09:46:35.537Z,28.50
2023-07-25T09:49:05.241Z,28.20
2023-07-25T09:51:34.494Z,27.90
2023-07-25T09:54:05.940Z,28.30
2023-07-25T09:56:33.096Z,28.10
2023-07-25T09:59:07.161Z,28.20
2023-07-25T10:01:36.820Z,28.00
2023-07-25T10:04:04.820Z,28.90
2023-07-25T10:06:34.064Z,29.50
2023-07-25T10:09:03.595Z,28.30
2023-07-25T10:11:32.624Z,28.30
2023-07-25T10:14:00.389Z,27.40
2023-07-25T10:16:27.618Z,26.50
2023-07-25T10:18:57.143Z,25.90
2023-07-25T10:21:31.236Z,25.90
2023-07-25T10:24:00.605Z,26.90
2023-07-25T10:26:28.579Z,28.10
2023-07-25T10:28:56.451Z,28.50
2023-07-25T10:31:26.030Z,27.80
2023-07-25T10:33:59.584Z,27.70
2023-07-25T10:36:28.330Z,27.10
2023-07-25T10:39:06.656Z,26.80
2023-07-25T10:41:35.503Z,27.90
2023-07-25T10:44:06.584Z,27.80
2023-07-25T10:46:34.440Z,26.70
2023-07-25T10:49:02.307Z,25.50
2023-07-25T10:51:50.461Z,25.30
2023-07-25T10:54:19.826Z,25.10
2023-07-25T10:57:10.901Z,24.50
2023-07-25T10:59:56.451Z,23.80
2023-07-25T11:02:30.122Z,24.50
2023-07-25T11:05:15.559Z,25.40
2023-07-25T11:07:48.308Z,26.60
2023-07-25T11:10:21.078Z,27.00
2023-07-25T11:12:49.846Z,26.00
2023-07-25T11:15:16.677Z,24.90
2023-07-25T11:17:43.959Z,24.60
2023-07-25T11:20:11.694Z,24.30
2023-07-25T11:22:38.509Z,24.00
2023-07-25T11:25:08.932Z,23.10
2023-07-25T11:27:42.942Z,23.20
2023-07-25T11:30:13.965Z,23.60
2023-07-25T11:32:46.461Z,23.30
2023-07-25T11:35:13.302Z,23.10
2023-07-25T11:37:40.143Z,23.20
2023-07-25T11:40:11.140Z,23.20
2023-07-25T11:42:39.956Z,22.70
2023-07-25T11:45:08.084Z,22.90
2023-07-25T11:47:35.206Z,22.80
2023-07-25T11:50:19.859Z,22.70
2023-07-25T11:52:49.982Z,22.60
2023-07-25T11:55:17.361Z,22.60
2023-07-25T11:57:44.284Z,23.00
2023-07-25T12:00:17.182Z,23.40
2023-07-25T12:02:44.350Z,23.70
2023-07-25T12:05:25.819Z,23.70
2023-07-25T12:07:53.077Z,24.00
2023-07-25T12:10:26.628Z,24.10
2023-07-25T12:12:54.298Z,24.70
2023-07-25T12:15:21.147Z,25.70
2023-07-25T12:17:48.047Z,26.00
2023-07-25T12:20:18.645Z,25.30
2023-07-25T12:22:46.419Z,24.50
2023-07-25T12:25:17.770Z,23.70
2023-07-25T12:27:45.345Z,23.40
2023-07-25T12:30:12.255Z,23.10
2023-07-25T12:32:39.184Z,22.80
2023-07-25T12:35:06.423Z,22.30
2023-07-25T12:37:33.363Z,21.90
2023-07-25T12:40:00.248Z,21.70
2023-07-25T12:42:27.149Z,21.80
2023-07-25T12:44:54.222Z,21.60
2023-07-25T12:47:21.096Z,22.10
2023-07-25T12:49:47.956Z,22.70
2023-07-25T12:52:14.976Z,23.00
2023-07-25T12:54:41.772Z,24.00
2023-07-25T12:57:08.609Z,24.60
2023-07-25T12:59:35.494Z,24.20
2023-07-25T13:02:02.346Z,24.00
2023-07-25T13:04:29.322Z,24.30
2023-07-25T13:06:56.261Z,24.50
2023-07-25T13:09:23.183Z,24.10
2023-07-25T13:11:50.019Z,24.60
2023-07-25T13:14:16.883Z,25.30
2023-07-25T13:16:43.801Z,25.80
2023-07-25T13:19:13.671Z,26.10
2023-07-25T13:21:40.525Z,26.30
2023-07-25T13:24:07.370Z,26.60
2023-07-25T13:26:34.216Z,27.00
2023-07-25T13:29:01.070Z,27.10
2023-07-25T13:31:28.137Z,27.90
2023-07-25T13:33:55.018Z,29.60
2023-07-25T13:36:21.872Z,28.40
2023-07-25T13:38:48.656Z,28.30
2023-07-25T13:41:15.610Z,28.70
2023-07-25T13:43:42.441Z,28.50
2023-07-25T13:46:09.462Z,28.10
2023-07-25T13:48:36.328Z,28.50
2023-07-25T13:51:03.321Z,29.20
2023-07-25T13:53:30.124Z,28.50
2023-07-25T13:55:56.962Z,28.00
2023-07-25T13:58:24.531Z,27.50
2023-07-25T14:00:51.773Z,27.40
2023-07-25T14:03:21.153Z,26.80
2023-07-25T14:05:48.083Z,27.70
2023-07-25T14:08:14.927Z,27.60
2023-07-25T14:10:41.807Z,27.10
2023-07-25T14:13:08.894Z,27.10
2023-07-25T14:15:36.320Z,27.60
2023-07-25T14:18:03.526Z,26.80
2023-07-25T14:20:30.524Z,27.80
2023-07-25T14:22:57.361Z,27.30
2023-07-25T14:25:24.247Z,28.10
2023-07-25T14:27:51.131Z,27.80
2023-07-25T14:30:18.108Z,28.10
2023-07-25T14:32:45.048Z,27.50
2023-07-25T14:35:12.037Z,26.70
2023-07-25T14:37:53.694Z,26.40
2023-07-25T14:40:24.104Z,26.00
2023-07-25T14:42:51.278Z,26.80
2023-07-25T14:45:18.121Z,26.60
2023-07-25T14:47:45.154Z,26.30
2023-07-25T14:50:12.217Z,26.50
2023-07-25T14:52:39.054Z,25.90
2023-07-25T14:55:07.319Z,25.60
2023-07-25T14:57:34.465Z,25.30
2023-07-25T15:00:01.441Z,25.20
2023-07-25T15:02:28.454Z,24.80
2023-07-25T15:04:55.404Z,24.90
2023-07-25T15:07:22.226Z,24.70
2023-07-25T15:09:49.065Z,23.80
2023-07-25T15:12:15.989Z,23.80
2023-07-25T15:14:42.971Z,23.90
2023-07-25T15:17:25.549Z,23.90
2023-07-25T15:20:00.242Z,23.50
2023-07-25T15:22:27.339Z,23.50
2023-07-25T15:24:54.683Z,23.20
2023-07-25T15:27:27.822Z,22.70
2023-07-25T15:29:55.028Z,22.50
2023-07-25T15:32:22.097Z,22.60
2023-07-25T15:34:49.227Z,22.70
2023-07-25T15:37:16.219Z,23.50
2023-07-25T15:39:43.156Z,24.20
2023-07-25T15:42:10.522Z,24.80
2023-07-25T15:44:37.481Z,24.70
2023-07-25T15:47:04.461Z,24.50
2023-07-25T15:49:31.710Z,24.40
2023-07-25T15:51:58.520Z,24.00
2023-07-25T15:54:27.613Z,24.30
2023-07-25T15:56:57.783Z,24.00
2023-07-25T15:59:25.689Z,24.40
2023-07-25T16:01:53.911Z,24.40
2023-07-25T16:04:21.194Z,24.70
2023-07-25T16:06:48.162Z,24.60
2023-07-25T16:09:15.389Z,24.50
2023-07-25T16:11:42.436Z,24.00
2023-07-25T16:14:09.380Z,24.00
2023-07-25T16:16:36.468Z,23.50
2023-07-25T16:19:03.325Z,23.80
2023-07-25T16:21:31.759Z,23.60
2023-07-25T16:23:59.075Z,23.90
2023-07-25T16:26:26.126Z,23.50
2023-07-25T16:28:53.029Z,23.40
2023-07-25T16:31:44.416Z,23.20
2023-07-25T16:34:06.750Z,23.30
2023-07-25T16:36:33.710Z,22.90
2023-07-25T16:39:00.868Z,22.70
2023-07-25T16:41:28.993Z,22.60
2023-07-25T16:43:55.952Z,21.90
2023-07-25T16:46:22.856Z,21.50
2023-07-25T16:48:49.828Z,21.00
2023-07-25T16:51:16.778Z,20.90
2023-07-25T16:53:43.795Z,20.50
2023-07-25T16:56:10.928Z,20.10
2023-07-25T16:58:37.802Z,20.10
2023-07-25T17:01:05.046Z,20.10
2023-07-25T17:03:32.040Z,20.10
2023-07-25T17:06:00.622Z,20.10
2023-07-25T17:08:28.916Z,19.90
2023-07-25T17:11:03.700Z,20.00
2023-07-25T17:13:30.505Z,19.90
2023-07-25T17:15:57.428Z,20.00
2023-07-25T17:18:24.255Z,19.70
2023-07-25T17:20:51.408Z,19.50
2023-07-25T17:23:18.250Z,19.50
2023-07-25T17:25:45.928Z,19.30
2023-07-25T17:28:12.750Z,19.30
2023-07-25T17:30:39.591Z,19.30
2023-07-25T17:33:06.840Z,19.10
2023-07-25T17:35:37.840Z,19.30
2023-07-25T17:38:05.202Z,19.20
2023-07-25T17:40:32.341Z,19.10
2023-07-25T17:42:59.231Z,19.10
2023-07-25T17:45:26.108Z,18.90
2023-07-25T17:47:53.071Z,18.80
2023-07-25T17:50:20.076Z,18.70
2023-07-25T17:52:46.907Z,18.60
2023-07-25T17:55:13.758Z,18.60
2023-07-25T17:57:40.598Z,18.40
2023-07-25T18:00:07.879Z,18.40
2023-07-25T18:02:34.787Z,18.50
2023-07-25T18:05:01.756Z,18.30
2023-07-25T18:07:28.590Z,18.20
2023-07-25T18:09:55.401Z,18.30
2023-07-25T18:12:25.714Z,18.30
2023-07-25T18:14:53.323Z,18.30
2023-07-25T18:17:20.209Z,18.20
2023-07-25T18:19:47.125Z,18.20
2023-07-25T18:22:13.968Z,18.00
2023-07-25T18:24:40.949Z,18.10
2023-07-25T18:27:29.290Z,18.00
2023-07-25T18:29:57.144Z,18.10
2023-07-25T18:32:24.018Z,18.10
2023-07-25T18:34:50.852Z,17.90
2023-07-25T18:37:17.654Z,17.90
2023-07-25T18:39:46.885Z,17.90
2023-07-25T18:42:13.758Z,17.80
2023-07-25T18:44:40.608Z,17.80
2023-07-25T18:47:21.182Z,17.80
2023-07-25T18:49:56.059Z,17.60
2023-07-25T18:52:22.962Z,17.60
2023-07-25T18:54:49.801Z,17.50
2023-07-25T18:57:22.703Z,17.40
2023-07-25T18:59:49.716Z,17.40
2023-07-25T19:02:16.680Z,17.30
2023-07-25T19:04:45.610Z,17.30
2023-07-25T19:07:16.306Z,17.30
2023-07-25T19:09:43.679Z,17.20
2023-07-25T19:12:17.373Z,17.20
2023-07-25T19:14:44.217Z,17.10
2023-07-25T19:17:11.422Z,17.20
2023-07-25T19:19:38.912Z,17.10
2023-07-25T19:22:05.983Z,17.10
2023-07-25T19:24:33.345Z,17.10
2023-07-25T19:27:03.536Z,17.00
2023-07-25T19:29:30.478Z,17.00
2023-07-25T19:31:57.349Z,17.00
2023-07-25T19:34:24.213Z,17.00
2023-07-25T19:36:51.089Z,16.90
2023-07-25T19:39:18.114Z,16.80
2023-07-25T19:41:44.971Z,16.90
2023-07-25T19:44:14.660Z,16.90
2023-07-25T19:46:41.799Z,16.80
2023-07-25T19:49:08.661Z,16.90
2023-07-25T19:51:35.596Z,16.80
2023-07-25T19:54:02.448Z,16.80
2023-07-25T19:56:33.638Z,16.90
2023-07-25T19:59:00.700Z,16.90
2023-07-25T20:01:27.686Z,16.90
2023-07-25T20:03:54.755Z,16.80
2023-07-25T20:06:24.196Z,16.80
2023-07-25T20:08:51.223Z,16.80
2023-07-25T20:11:18.064Z,16.80
2023-07-25T20:13:44.892Z,16.80
2023-07-25T20:16:11.822Z,16.80
2023-07-25T20:18:38.658Z,16.70
2023-07-25T20:21:11.237Z,16.80
2023-07-25T20:23:38.725Z,16.80
2023-07-25T20:26:05.849Z,16.80
2023-07-25T20:28:32.735Z,16.80
2023-07-25T20:31:00.033Z,16.80
2023-07-25T20:33:27.022Z,16.80
2023-07-25T20:35:54.225Z,16.70
2023-07-25T20:38:21.204Z,16.80
2023-07-25T20:40:48.245Z,16.80
2023-07-25T20:43:15.191Z,16.70
2023-07-25T20:45:42.095Z,16.70
2023-07-25T20:48:09.147Z,16.80
2023-07-25T20:50:36.023Z,16.80
2023-07-25T20:53:03.244Z,16.70
2023-07-25T20:55:30.612Z,16.70
2023-07-25T20:57:57.440Z,16.70
2023-07-25T21:00:24.279Z,16.80
2023-07-25T21:02:51.274Z,16.80
2023-07-25T21:05:18.206Z,16.80
2023-07-25T21:07:45.049Z,16.80
2023-07-25T21:10:11.919Z,16.70
2023-07-25T21:12:39.093Z,16.80
2023-07-25T21:15:07.391Z,16.70
2023-07-25T21:17:34.225Z,16.70
2023-07-25T21:20:01.144Z,16.70
2023-07-25T21:22:27.981Z,16.70
2023-07-25T21:24:55.197Z,16.70
2023-07-25T21:27:22.618Z,16.80
2023-07-25T21:29:49.579Z,16.80
2023-07-25T21:32:16.507Z,16.70
2023-07-25T21:34:43.373Z,16.70
2023-07-25T21:37:10.282Z,16.80
2023-07-25T21:39:37.126Z,16.70
2023-07-25T21:42:04.166Z,16.70
2023-07-25T21:44:31.096Z,16.70
2023-07-25T21:46:57.957Z,16.70
2023-07-25T21:49:24.861Z,16.60
2023-07-25T21:51:51.694Z,16.60
2023-07-25T21:54:18.555Z,16.70
2023-07-25T21:56:45.470Z,16.70
2023-07-25T21:59:12.972Z,16.70
2023-07-25T22:01:40.016Z,16.70
2023-07-25T22:04:09.133Z,16.70
2023-07-25T22:06:36.187Z,16.80
2023-07-25T22:09:03.012Z,16.90
2023-07-25T22:11:29.978Z,16.90
2023-07-25T22:13:56.814Z,16.80
2023-07-25T22:16:24.052Z,16.80
2023-07-25T22:18:51.041Z,16.90
2023-07-25T22:21:20.159Z,16.80
2023-07-25T22:23:47.187Z,16.80
2023-07-25T22:26:14.043Z,16.90
2023-07-25T22:28:40.966Z,17.00
2023-07-25T22:31:07.852Z,16.80
2023-07-25T22:33:34.781Z,16.90
2023-07-25T22:36:01.605Z,16.90
2023-07-25T22:38:28.584Z,16.90
2023-07-25T22:40:55.394Z,16.90
2023-07-25T22:43:22.207Z,16.80
2023-07-25T22:45:49.259Z,16.80
2023-07-25T22:48:16.168Z,16.80
2023-07-25T22:50:43.103Z,16.80
2023-07-25T22:53:09.895Z,16.80
2023-07-25T22:55:36.927Z,16.70
2023-07-25T22:58:04.377Z,16.80
2023-07-25T23:00:31.270Z,16.80
2023-07-25T23:02:58.179Z,16.80
2023-07-25T23:05:25.184Z,16.70
2023-07-25T23:07:52.032Z,16.70
2023-07-25T23:10:18.882Z,16.80
2023-07-25T23:12:45.809Z,16.80
2023-07-25T23:15:14.514Z,16.90
2023-07-25T23:17:41.423Z,16.80
2023-07-25T23:20:08.464Z,16.70
2023-07-25T23:22:35.276Z,16.70
2023-07-25T23:25:02.383Z,16.80
2023-07-25T23:27:29.317Z,16.80
2023-07-25T23:29:56.140Z,17.00
2023-07-25T23:32:23.054Z,16.90
2023-07-25T23:34:50.853Z,17.10
2023-07-25T23:37:18.018Z,17.10
2023-07-25T23:39:44.969Z,17.00
2023-07-25T23:42:12.566Z,17.00
2023-07-25T23:44:39.691Z,17.00
2023-07-25T23:47:06.664Z,17.00
2023-07-25T23:49:33.887Z,17.00
2023-07-25T23:52:00.736Z,16.90
2023-07-25T23:54:27.967Z,16.80
2023-07-25T23:56:54.948Z,16.70
2023-07-25T23:59:21.835Z,16.70
